Time;durP1;ratioP1;P1;durP2;ratioP2;P2;SDS_P1;SDS_P2;PMS_P1;PMS_P2;Temp;Humidity;BMP_temperature;BMP_pressure;BME280_temperature;BME280_humidity;BME280_pressure;Samples;Min_cycle;Max_cycle;Signal;HPM_P1;HPM_P2
2021/06/17 00:00:09;;;;;;;12.20;7.78;;;;;;;22.91;70.98;100659.18;1796093;78;21058;-70
2021/06/17 00:02:37;;;;;;;15.83;7.67;;;;;;;22.89;70.94;100660.08;1793762;78;21060;-70
2021/06/17 00:05:06;;;;;;;13.15;7.35;;;;;;;22.87;70.92;100659.62;1791744;78;21591;-70
2021/06/17 00:07:32;;;;;;;14.83;7.40;;;;;;;22.86;70.88;100651.05;1783833;79;21067;-69
2021/06/17 00:09:58;;;;;;;13.62;6.80;;;;;;;22.86;70.80;100651.05;1784459;79;21442;-69
2021/06/17 00:12:24;;;;;;;14.33;7.30;;;;;;;22.86;70.75;100644.11;1782163;79;20976;-70
2021/06/17 00:14:50;;;;;;;12.63;6.53;;;;;;;22.86;70.80;100646.89;1778320;79;21085;-69
2021/06/17 00:17:18;;;;;;;12.45;7.37;;;;;;;22.86;70.85;100649.66;1780252;79;21043;-69
2021/06/17 00:19:46;;;;;;;14.28;7.12;;;;;;;22.87;70.88;100654.07;1775904;79;21032;-70
2021/06/17 00:22:13;;;;;;;11.10;7.25;;;;;;;22.87;70.92;100649.34;1772021;79;21222;-69
2021/06/17 00:24:39;;;;;;;13.50;7.45;;;;;;;22.87;70.94;100645.75;1776747;79;21068;-70
2021/06/17 00:27:06;;;;;;;14.15;7.45;;;;;;;22.86;70.91;100649.09;1774018;79;20955;-70
2021/06/17 00:29:32;;;;;;;13.05;7.37;;;;;;;22.85;70.86;100646.64;1775366;79;21607;-69
2021/06/17 00:31:59;;;;;;;13.58;6.85;;;;;;;22.83;70.80;100645.58;1737600;80;20964;-70
2021/06/17 00:34:25;;;;;;;12.20;6.08;;;;;;;22.80;70.76;100644.88;1777411;79;21114;-69
2021/06/17 00:36:51;;;;;;;12.98;6.83;;;;;;;22.81;70.67;100640.15;1778055;79;21126;-70
2021/06/17 00:39:17;;;;;;;11.53;6.05;;;;;;;22.79;70.69;100634.92;1739762;80;21629;-69
2021/06/17 00:41:43;;;;;;;13.18;6.55;;;;;;;22.80;70.73;100644.06;1776658;79;20996;-70
2021/06/17 00:44:09;;;;;;;13.22;7.08;;;;;;;22.81;70.76;100638.77;1778238;79;21091;-70
2021/06/17 00:46:36;;;;;;;12.30;6.47;;;;;;;22.81;70.78;100638.19;1776378;79;21114;-69
2021/06/17 00:49:05;;;;;;;15.88;7.40;;;;;;;22.80;70.81;100624.08;1778485;79;20949;-70
2021/06/17 00:51:31;;;;;;;13.85;7.08;;;;;;;22.80;70.85;100633.78;1779624;79;21060;-70
2021/06/17 00:53:57;;;;;;;12.05;7.08;;;;;;;22.78;70.82;100631.94;1779132;79;21013;-67
2021/06/17 00:56:23;;;;;;;13.13;6.80;;;;;;;22.76;70.77;100637.81;1774320;79;20985;-70
2021/06/17 00:58:51;;;;;;;11.33;6.12;;;;;;;22.74;70.75;100633.76;1781291;79;22131;-69
2021/06/17 01:01:17;;;;;;;14.43;6.47;;;;;;;22.72;70.68;100630.49;1774814;79;21512;-70
2021/06/17 01:03:43;;;;;;;10.75;6.83;;;;;;;22.72;70.62;100632.70;1777344;79;20913;-69
2021/06/17 01:06:11;;;;;;;11.53;6.78;;;;;;;22.73;70.62;100627.97;1772405;79;20941;-69
2021/06/17 01:08:55;;;;;;;13.22;6.60;;;;;;;22.72;70.66;100624.95;1756301;79;21076;-69
2021/06/17 01:11:43;;;;;;;12.78;6.22;;;;;;;22.73;70.74;100624.63;1757986;79;21164;-70
2021/06/17 01:14:24;;;;;;;12.53;7.00;;;;;;;22.73;70.78;100624.63;1753466;81;21076;-69
2021/06/17 01:17:11;;;;;;;11.00;6.30;;;;;;;22.74;70.80;100619.29;1758242;80;21062;-69
2021/06/17 01:20:07;;;;;;;11.43;6.87;;;;;;;22.74;70.82;100619.89;1758142;79;21139;-69
2021/06/17 01:22:53;;;;;;;12.00;6.70;;;;;;;22.72;70.78;100627.15;1740238;79;21477;-69
2021/06/17 01:25:53;;;;;;;10.23;6.53;;;;;;;22.67;70.69;100616.22;1756587;79;21064;-69
2021/06/17 01:28:19;;;;;;;13.45;5.60;;;;;;;22.66;70.68;100623.50;1757840;79;21529;-69
2021/06/17 01:30:54;;;;;;;10.68;6.42;;;;;;;22.65;70.58;100624.08;1738980;80;21092;-69
2021/06/17 01:33:20;;;;;;;11.97;6.22;;;;;;;22.64;70.59;100619.67;1759665;79;21146;-69
2021/06/17 01:35:48;;;;;;;9.85;5.72;;;;;;;22.65;70.62;100625.46;1759789;80;21028;-69
2021/06/17 01:38:18;;;;;;;12.05;6.17;;;;;;;22.64;70.67;100626.60;1760260;79;21423;-69
2021/06/17 01:40:45;;;;;;;10.35;6.78;;;;;;;22.65;70.76;100632.97;1757895;80;21134;-69
2021/06/17 01:43:11;;;;;;;10.43;5.83;;;;;;;22.65;70.77;100635.73;1761934;79;21426;-69
2021/06/17 01:45:37;;;;;;;10.95;6.03;;;;;;;22.64;70.74;100636.87;1763589;79;21772;-69
2021/06/17 01:48:04;;;;;;;11.57;6.60;;;;;;;22.63;70.72;100641.61;1739499;79;21086;-70
2021/06/17 01:50:30;;;;;;;9.98;6.20;;;;;;;22.61;70.68;100636.98;1759741;79;21119;-69
2021/06/17 01:52:57;;;;;;;11.78;6.37;;;;;;;22.59;70.64;100639.84;1757256;79;21631;-69
2021/06/17 01:55:23;;;;;;;10.18;5.83;;;;;;;22.60;70.59;100638.13;1759544;80;21012;-69
2021/06/17 01:57:49;;;;;;;7.95;5.45;;;;;;;22.60;70.56;100635.92;1752549;79;21098;-69
2021/06/17 02:00:16;;;;;;;9.15;5.40;;;;;;;22.59;70.61;100636.50;1695562;82;21548;-69
2021/06/17 02:02:42;;;;;;;8.83;6.05;;;;;;;22.61;70.67;100631.44;1723698;80;21091;-69
2021/06/17 02:05:10;;;;;;;10.93;5.90;;;;;;;22.62;70.72;100639.97;1748149;79;21670;-69
2021/06/17 02:07:42;;;;;;;9.93;5.72;;;;;;;22.62;70.74;100637.20;1790991;78;21019;-69
2021/06/17 02:10:09;;;;;;;10.70;5.78;;;;;;;22.62;70.74;100633.05;1798342;78;21568;-69
2021/06/17 02:12:35;;;;;;;10.25;5.92;;;;;;;22.61;70.75;100636.98;1793405;78;21000;-69
2021/06/17 02:15:01;;;;;;;9.60;6.03;;;;;;;22.61;70.69;100638.94;1762587;79;21121;-70
2021/06/17 02:17:27;;;;;;;8.60;5.58;;;;;;;22.58;70.65;100634.86;1730114;81;20937;-69
2021/06/17 02:19:53;;;;;;;10.93;6.15;;;;;;;22.56;70.59;100630.24;1764058;79;21114;-69
2021/06/17 02:22:19;;;;;;;9.13;5.25;;;;;;;22.56;70.53;100635.78;1764761;79;21105;-69
2021/06/17 02:24:50;;;;;;;8.88;5.78;;;;;;;22.57;70.51;100636.61;1761397;79;21028;-69
2021/06/17 02:27:27;;;;;;;8.15;5.00;;;;;;;22.56;70.57;100637.17;1764184;79;21077;-69
2021/06/17 02:29:53;;;;;;;9.20;5.10;;;;;;;22.59;70.64;100635.67;1761850;79;21112;-69
2021/06/17 02:32:22;;;;;;;10.68;5.97;;;;;;;22.60;70.67;100640.08;1763352;79;21056;-69
2021/06/17 02:34:48;;;;;;;8.58;5.65;;;;;;;22.59;70.70;100630.13;1766541;79;21566;-69
2021/06/17 02:37:16;;;;;;;9.40;5.62;;;;;;;22.59;70.72;100632.91;1764823;79;21127;-69
2021/06/17 02:39:42;;;;;;;11.25;6.28;;;;;;;22.59;70.69;100637.06;1765560;79;20957;-69
2021/06/17 02:42:08;;;;;;;9.50;6.05;;;;;;;22.57;70.66;100640.19;1785227;78;21044;-68
2021/06/17 02:44:34;;;;;;;9.38;5.78;;;;;;;22.56;70.60;100640.52;1789714;78;21025;-69
2021/06/17 02:47:01;;;;;;;8.85;5.58;;;;;;;22.55;70.55;100641.66;1791272;78;20904;-69
2021/06/17 02:49:27;;;;;;;9.95;5.50;;;;;;;22.55;70.47;100647.20;1790328;78;21083;-68
2021/06/17 02:51:54;;;;;;;9.23;5.42;;;;;;;22.55;70.46;100648.02;1791632;78;21085;-69
2021/06/17 02:54:20;;;;;;;11.10;6.28;;;;;;;22.56;70.51;100644.67;1791543;78;21048;-68
2021/06/17 02:56:59;;;;;;;8.60;4.95;;;;;;;22.56;70.54;100648.27;1791052;78;21142;-69
2021/06/17 02:59:52;;;;;;;9.73;4.95;;;;;;;22.58;70.62;100653.45;1788615;78;21005;-68
2021/06/17 03:02:42;;;;;;;9.00;5.62;;;;;;;22.59;70.67;100649.55;1782255;79;21646;-68
2021/06/17 03:05:26;;;;;;;8.78;5.70;;;;;;;22.58;70.67;100651.50;1788624;78;21451;-64
2021/06/17 03:08:00;;;;;;;9.70;5.22;;;;;;;22.57;70.60;100649.89;1783774;78;21067;-68
2021/06/17 03:10:28;;;;;;;9.78;5.87;;;;;;;22.56;70.54;100651.03;1786602;78;21112;-69
2021/06/17 03:12:54;;;;;;;10.45;5.35;;;;;;;22.54;70.50;100654.70;1788997;78;21079;-68
2021/06/17 03:15:21;;;;;;;9.18;5.47;;;;;;;22.51;70.47;100653.99;1784195;78;21072;-68
2021/06/17 03:17:49;;;;;;;7.97;5.50;;;;;;;22.51;70.40;100655.38;1779292;78;23291;-68
2021/06/17 03:20:15;;;;;;;9.08;5.30;;;;;;;22.52;70.37;100658.40;1788671;78;21005;-68
2021/06/17 03:22:44;;;;;;;9.18;5.78;;;;;;;22.51;70.45;100662.31;1767253;79;21138;-68
2021/06/17 03:25:14;;;;;;;8.43;5.10;;;;;;;22.53;70.50;100668.32;1779558;78;21068;-67
2021/06/17 03:27:40;;;;;;;7.33;5.03;;;;;;;22.55;70.54;100666.61;1782373;78;21108;-68
2021/06/17 03:30:08;;;;;;;8.35;5.37;;;;;;;22.55;70.60;100667.42;1784632;78;20987;-68
2021/06/17 03:32:35;;;;;;;9.30;5.85;;;;;;;22.55;70.59;100662.45;1780165;78;21021;-68
2021/06/17 03:35:02;;;;;;;8.08;4.70;;;;;;;22.55;70.61;100659.67;1752215;78;21560;-69
2021/06/17 03:37:28;;;;;;;8.85;5.35;;;;;;;22.55;70.54;100663.27;1782283;78;21051;-68
2021/06/17 03:39:55;;;;;;;8.35;5.05;;;;;;;22.56;70.50;100669.62;1783857;78;21040;-68
2021/06/17 03:42:21;;;;;;;7.37;4.90;;;;;;;22.55;70.45;100672.16;1751766;80;21165;-68
2021/06/17 03:44:48;;;;;;;6.83;4.87;;;;;;;22.56;70.35;100680.72;1756448;78;21150;-68
2021/06/17 03:47:15;;;;;;;7.55;4.78;;;;;;;22.56;70.33;100678.77;1788872;78;21056;-68
2021/06/17 03:49:41;;;;;;;8.38;4.83;;;;;;;22.58;70.36;100683.39;1754524;80;21103;-68
2021/06/17 03:52:07;;;;;;;7.12;4.75;;;;;;;22.58;70.43;100686.16;1780325;78;21595;-69
2021/06/17 03:54:34;;;;;;;7.58;4.95;;;;;;;22.59;70.47;100684.20;1775569;78;23182;-69
2021/06/17 03:57:02;;;;;;;11.80;6.03;;;;;;;22.61;70.46;100681.92;1758121;78;21039;-68
2021/06/17 03:59:39;;;;;;;10.40;6.03;;;;;;;22.61;70.45;100684.70;1792339;78;21131;-68
2021/06/17 04:02:05;;;;;;;10.53;5.42;;;;;;;22.61;70.39;100681.92;1794886;78;21742;-67
2021/06/17 04:04:32;;;;;;;18.20;8.60;;;;;;;22.59;70.37;100685.02;1779883;78;21047;-68
2021/06/17 04:07:00;;;;;;;35.58;12.80;;;;;;;22.59;70.32;100682.81;1779267;78;23003;-69
2021/06/17 04:09:29;;;;;;;19.27;7.05;;;;;;;22.59;70.26;100689.18;1782454;78;21024;-68
2021/06/17 04:12:05;;;;;;;17.87;7.72;;;;;;;22.61;70.26;100690.24;1788508;79;21138;-68
2021/06/17 04:14:31;;;;;;;26.48;14.05;;;;;;;22.63;70.29;100699.02;1766821;79;21113;-68
2021/06/17 04:16:57;;;;;;;37.42;20.43;;;;;;;22.64;70.32;100704.25;1777643;78;21008;-67
2021/06/17 04:19:26;;;;;;;23.67;12.05;;;;;;;22.66;70.37;100700.55;1785867;78;22103;-67
2021/06/17 04:21:56;;;;;;;62.80;25.82;;;;;;;22.68;70.44;100701.05;1751415;79;21074;-67
2021/06/17 04:24:23;;;;;;;75.80;29.27;;;;;;;22.69;70.44;100699.94;1778922;78;21036;-66
2021/06/17 04:26:52;;;;;;;48.10;19.20;;;;;;;22.70;70.39;100697.98;1794155;78;21075;-68
2021/06/17 04:29:18;;;;;;;85.75;30.40;;;;;;;22.69;70.38;100699.94;1795510;78;21106;-68
2021/06/17 04:31:44;;;;;;;58.83;23.12;;;;;;;22.71;70.31;100710.11;1793929;78;21090;-67
2021/06/17 04:34:12;;;;;;;38.70;15.20;;;;;;;22.71;70.29;100705.95;1793608;78;21047;-67
2021/06/17 04:36:38;;;;;;;27.65;11.43;;;;;;;22.72;70.18;100707.58;1793563;78;21094;-68
2021/06/17 04:39:05;;;;;;;22.05;8.98;;;;;;;22.75;70.19;100708.86;1780220;78;21076;-68
2021/06/17 04:41:31;;;;;;;22.10;8.85;;;;;;;22.76;70.24;100708.53;1794397;78;21067;-69
2021/06/17 04:44:02;;;;;;;32.50;14.58;;;;;;;22.79;70.30;100713.97;1789680;78;21136;-68
2021/06/17 04:46:30;;;;;;;29.87;11.90;;;;;;;22.83;70.35;100715.53;1795635;78;21468;-68
2021/06/17 04:48:56;;;;;;;22.37;9.38;;;;;;;22.84;70.40;100706.85;1793110;78;21074;-69
2021/06/17 04:51:22;;;;;;;15.50;7.53;;;;;;;22.84;70.40;100709.62;1791570;78;21067;-69
2021/06/17 04:53:52;;;;;;;20.80;8.55;;;;;;;22.87;70.38;100712.33;1789005;78;21051;-65
2021/06/17 04:56:17;;;;;;;19.20;9.10;;;;;;;22.87;70.32;100712.33;1794067;78;23229;-64
2021/06/17 04:58:43;;;;;;;20.40;8.98;;;;;;;22.88;70.34;100713.36;1798086;78;20963;-68
2021/06/17 05:01:09;;;;;;;39.35;15.90;;;;;;;22.90;70.33;100717.20;1788612;78;21747;-71
2021/06/17 05:03:37;;;;;;;36.80;17.57;;;;;;;22.93;70.33;100722.88;1794661;78;21131;-70
2021/06/17 05:06:04;;;;;;;52.58;22.73;;;;;;;22.96;70.42;100722.77;1793077;78;21557;-71
2021/06/17 05:11:15;;;;;;;38.30;13.95;;;;;;;22.98;70.66;100734.36;1779089;78;21031;-72
2021/06/17 05:13:43;;;;;;;55.33;18.73;;;;;;;22.99;70.77;100731.27;1784371;78;21026;-71
2021/06/17 05:16:09;;;;;;;56.73;19.48;;;;;;;23.02;70.85;100731.16;1786535;78;23026;-71
2021/06/17 05:18:35;;;;;;;35.55;12.53;;;;;;;23.03;70.92;100736.38;1777409;78;21059;-72
2021/06/17 05:21:02;;;;;;;29.18;10.98;;;;;;;23.04;70.93;100740.75;1787768;78;21131;-71
2021/06/17 05:23:28;;;;;;;26.48;9.90;;;;;;;23.05;70.89;100740.19;1790855;78;21079;-72
2021/06/17 05:25:56;;;;;;;31.75;12.25;;;;;;;23.06;70.83;100740.44;1791704;78;22254;-72
2021/06/17 05:28:24;;;;;;;77.12;34.40;;;;;;;23.06;70.79;100754.30;1785622;78;21095;-72
2021/06/17 05:30:56;;;;;;;123.20;47.90;;;;;;;23.03;70.70;100754.41;1758837;79;21142;-64
2021/06/17 05:33:23;;;;;;;110.70;39.63;;;;;;;23.04;70.59;100758.01;1765683;79;21095;-67
2021/06/17 05:35:49;;;;;;;122.40;45.10;;;;;;;23.04;70.60;100762.95;1764101;79;21080;-71
2021/06/17 05:38:20;;;;;;;107.10;40.03;;;;;;;23.06;70.63;100766.80;1733547;81;21298;-65
2021/06/17 05:40:46;;;;;;;;;;;;;;;23.07;70.64;100770.63;1763994;79;21662;-70
2021/06/17 05:43:12;;;;;;;153.38;65.40;;;;;;;23.10;70.67;100784.40;1762522;79;20495;-68
2021/06/17 05:45:39;;;;;;;159.00;70.87;;;;;;;23.10;70.70;100781.05;1761217;79;23150;-66
2021/06/17 05:48:07;;;;;;;231.10;111.47;;;;;;;23.13;70.70;100787.88;1758093;79;21056;-68
2021/06/17 05:50:33;;;;;;;321.85;155.65;;;;;;;23.14;70.71;100796.45;1731378;81;21134;-67
2021/06/17 05:53:00;;;;;;;327.80;154.97;;;;;;;23.16;70.69;100806.09;1761180;79;20939;-66
2021/06/17 05:55:26;;;;;;;311.45;142.98;;;;;;;23.17;70.59;100808.27;1761243;79;21047;-67
2021/06/17 05:57:52;;;;;;;290.95;129.85;;;;;;;23.17;70.52;100810.47;1728239;81;21345;-67
2021/06/17 06:00:19;;;;;;;277.30;128.82;;;;;;;23.18;70.42;100819.61;1763464;79;21367;-65
2021/06/17 06:02:45;;;;;;;243.12;107.43;;;;;;;23.17;70.33;100824.34;1780261;78;21043;-65
2021/06/17 06:05:11;;;;;;;210.90;95.67;;;;;;;23.19;70.27;100828.19;1788171;78;21363;-67
2021/06/17 06:07:41;;;;;;;207.72;92.67;;;;;;;23.20;70.28;100827.87;1787993;78;21087;-64
2021/06/17 06:10:08;;;;;;;201.58;92.82;;;;;;;23.22;70.33;100823.34;1784875;78;21019;-70
2021/06/17 06:12:35;;;;;;;262.12;111.40;;;;;;;23.22;70.34;100826.13;1788392;78;21016;-67
2021/06/17 06:15:01;;;;;;;238.50;105.15;;;;;;;23.23;70.36;100821.64;1788767;78;21000;-66
2021/06/17 06:17:28;;;;;;;240.35;97.78;;;;;;;23.24;70.34;100825.23;1784858;78;21010;-66
2021/06/17 06:19:54;;;;;;;178.72;73.65;;;;;;;23.24;70.29;100832.17;1794718;78;20981;-66
2021/06/17 06:22:20;;;;;;;159.80;63.90;;;;;;;23.23;70.21;100836.91;1791261;78;22089;-66
2021/06/17 06:24:47;;;;;;;129.20;53.35;;;;;;;23.21;70.13;100838.40;1788835;78;21122;-66
2021/06/17 06:27:13;;;;;;;116.55;50.88;;;;;;;23.22;70.04;100833.06;1787983;78;21095;-66
2021/06/17 06:29:40;;;;;;;110.20;48.28;;;;;;;23.23;70.01;100831.35;1790308;78;21855;-64
2021/06/17 06:32:09;;;;;;;110.57;47.15;;;;;;;23.25;70.01;100830.21;1789969;78;21024;-67
2021/06/17 06:34:35;;;;;;;113.65;53.60;;;;;;;23.27;70.04;100837.61;1786897;78;21469;-67
2021/06/17 06:37:02;;;;;;;112.12;47.00;;;;;;;23.29;70.06;100838.11;1785265;78;21052;-67
2021/06/17 06:39:29;;;;;;;98.95;43.02;;;;;;;23.28;70.06;100840.06;1761146;79;21052;-67
2021/06/17 06:41:55;;;;;;;86.45;40.30;;;;;;;23.28;70.03;100848.39;1724729;81;21063;-67
2021/06/17 06:44:22;;;;;;;81.57;36.55;;;;;;;23.28;69.96;100855.33;1756969;79;21494;-67
2021/06/17 06:46:50;;;;;;;75.20;34.50;;;;;;;23.27;69.92;100859.82;1762591;79;21091;-67
2021/06/17 06:49:17;;;;;;;57.15;27.10;;;;;;;23.27;69.86;100866.77;1764954;79;21023;-66
2021/06/17 06:51:43;;;;;;;54.23;24.35;;;;;;;23.28;69.78;100867.83;1766198;79;21115;-67
2021/06/17 06:54:09;;;;;;;48.85;21.27;;;;;;;23.30;69.76;100866.91;1729209;81;21534;-67
2021/06/17 06:56:37;;;;;;;37.75;19.65;;;;;;;23.30;69.76;100868.29;1793731;78;21126;-67
2021/06/17 06:59:04;;;;;;;36.60;18.67;;;;;;;23.31;69.79;100876.86;1714726;81;23234;-67
2021/06/17 07:01:32;;;;;;;40.48;17.98;;;;;;;23.29;69.83;100862.52;1758073;79;20980;-67
2021/06/17 07:03:58;;;;;;;31.33;15.35;;;;;;;23.27;69.86;100860.64;1765170;79;21042;-67
2021/06/17 07:06:25;;;;;;;32.85;15.10;;;;;;;23.27;69.83;100862.02;1764081;79;21122;-68
2021/06/17 07:08:51;;;;;;;28.15;13.62;;;;;;;23.24;69.80;100857.15;1745316;79;21149;-67
2021/06/17 07:11:17;;;;;;;24.92;12.88;;;;;;;23.21;69.76;100852.27;1731220;81;21042;-67
2021/06/17 07:13:43;;;;;;;20.75;10.98;;;;;;;23.20;69.71;100861.17;1733617;81;20986;-67
2021/06/17 07:16:09;;;;;;;20.48;10.03;;;;;;;23.20;69.63;100853.41;1734759;81;21500;-67
2021/06/17 07:18:35;;;;;;;15.05;8.98;;;;;;;23.22;69.64;100848.33;1733859;81;21722;-65
2021/06/17 07:21:02;;;;;;;15.40;8.70;;;;;;;23.24;69.70;100861.31;1728400;81;21118;-66
2021/06/17 07:23:30;;;;;;;14.85;8.18;;;;;;;23.27;69.72;100855.09;1768087;79;21423;-67
2021/06/17 07:25:56;;;;;;;12.35;7.53;;;;;;;23.28;69.76;100859.50;1767522;80;20977;-67
2021/06/17 07:28:22;;;;;;;15.13;7.58;;;;;;;23.30;69.77;100860.56;1767273;80;21026;-67
2021/06/17 07:30:48;;;;;;;13.90;8.10;;;;;;;23.29;69.75;100858.36;1768276;79;21054;-67
2021/06/17 07:33:14;;;;;;;14.00;7.45;;;;;;;23.31;69.68;100852.45;1773131;79;21494;-67
2021/06/17 07:35:41;;;;;;;15.85;7.12;;;;;;;23.30;69.63;100850.84;1722733;81;23195;-68
2021/06/17 07:38:07;;;;;;;12.30;6.70;;;;;;;23.29;69.56;100849.21;1762786;80;20984;-67
2021/06/17 07:40:33;;;;;;;9.98;6.12;;;;;;;23.29;69.50;100843.09;1765139;80;21467;-67
2021/06/17 07:42:59;;;;;;;10.65;6.37;;;;;;;23.31;69.50;100833.84;1765486;80;21105;-68
2021/06/17 07:45:29;;;;;;;10.40;5.60;;;;;;;23.32;69.52;100834.08;1770824;79;20996;-67
2021/06/17 07:47:54;;;;;;;10.05;5.17;;;;;;;23.35;69.55;100830.63;1770312;79;21129;-67
2021/06/17 07:50:20;;;;;;;11.88;5.05;;;;;;;23.35;69.58;100829.23;1768240;79;21438;-67
2021/06/17 07:52:46;;;;;;;9.15;5.50;;;;;;;23.35;69.58;100843.12;1772703;79;21094;-67
2021/06/17 07:55:12;;;;;;;11.65;5.92;;;;;;;23.35;69.57;100845.89;1766945;80;21504;-67
2021/06/17 07:57:38;;;;;;;13.13;5.87;;;;;;;23.35;69.55;100846.47;1766347;80;21629;-67
2021/06/17 08:00:06;;;;;;;8.20;5.05;;;;;;;23.34;69.49;100838.70;1761819;80;21004;-67
2021/06/17 08:02:32;;;;;;;7.55;4.70;;;;;;;23.32;69.45;100834.65;1765686;80;21063;-67
2021/06/17 08:04:58;;;;;;;8.53;4.75;;;;;;;23.30;69.39;100844.69;1730476;81;21086;-67
2021/06/17 08:07:24;;;;;;;7.05;4.62;;;;;;;23.30;69.40;100849.45;1770532;80;21012;-68
2021/06/17 08:09:51;;;;;;;6.60;4.65;;;;;;;23.30;69.46;100853.63;1787039;78;21012;-67
2021/06/17 08:12:17;;;;;;;9.08;5.05;;;;;;;23.29;69.50;100856.97;1785599;78;21486;-67
2021/06/17 08:14:44;;;;;;;8.98;5.55;;;;;;;23.28;69.57;100862.27;1785754;78;21031;-68
2021/06/17 08:17:11;;;;;;;9.88;5.03;;;;;;;23.27;69.61;100859.25;1786010;78;21426;-68
2021/06/17 08:19:37;;;;;;;6.78;4.78;;;;;;;23.26;69.62;100860.95;1786177;78;21039;-67
2021/06/17 08:22:06;;;;;;;8.55;4.70;;;;;;;23.25;69.58;100856.58;1786980;78;21059;-68
2021/06/17 08:24:34;;;;;;;8.65;5.20;;;;;;;23.21;69.54;100848.90;1788885;78;21129;-67
2021/06/17 08:27:00;;;;;;;7.95;4.70;;;;;;;23.20;69.52;100857.58;1758238;79;20912;-67
2021/06/17 08:29:26;;;;;;;7.03;4.60;;;;;;;23.19;69.45;100856.77;1791204;78;21027;-67
2021/06/17 08:31:52;;;;;;;8.75;4.40;;;;;;;23.19;69.45;100855.38;1793800;78;21056;-67
2021/06/17 08:34:18;;;;;;;9.33;4.60;;;;;;;23.20;69.52;100847.86;1788962;78;21244;-68
2021/06/17 08:36:45;;;;;;;11.22;4.33;;;;;;;23.22;69.56;100848.33;1782239;78;21325;-68
2021/06/17 08:39:11;;;;;;;6.75;4.33;;;;;;;23.23;69.64;100854.95;1790060;78;21407;-67
2021/06/17 08:41:37;;;;;;;7.30;4.47;;;;;;;23.24;69.65;100857.15;1778111;78;21075;-67
2021/06/17 08:44:04;;;;;;;6.47;4.72;;;;;;;23.27;69.61;100856.47;1792820;78;21040;-68
2021/06/17 08:46:31;;;;;;;8.90;5.17;;;;;;;23.27;69.58;100857.86;1785545;78;20975;-67
2021/06/17 08:48:57;;;;;;;6.35;4.42;;;;;;;23.27;69.51;100863.41;1760229;78;21076;-67
2021/06/17 08:51:23;;;;;;;7.47;4.67;;;;;;;23.26;69.49;100863.16;1790382;78;21639;-67
2021/06/17 08:53:49;;;;;;;7.30;4.03;;;;;;;23.28;69.41;100864.23;1783901;78;21103;-68
2021/06/17 08:56:15;;;;;;;7.17;4.28;;;;;;;23.31;69.40;100862.16;1789900;78;21542;-67
2021/06/17 08:58:41;;;;;;;8.28;4.45;;;;;;;23.32;69.42;100864.62;1781018;78;21043;-67
2021/06/17 09:01:12;;;;;;;6.22;3.83;;;;;;;23.33;69.43;100865.44;1787620;79;21111;-68
2021/06/17 09:03:40;;;;;;;6.37;4.10;;;;;;;23.32;69.44;100860.45;1788789;78;21001;-68
2021/06/17 09:06:07;;;;;;;8.15;4.15;;;;;;;23.32;69.45;100868.78;1790096;78;21106;-68
2021/06/17 09:08:34;;;;;;;5.50;3.90;;;;;;;23.31;69.41;100867.15;1787424;78;21154;-68
2021/06/17 09:11:06;;;;;;;7.60;4.12;;;;;;;23.30;69.38;100862.73;1788377;78;21137;-68
2021/06/17 09:13:34;;;;;;;8.08;4.45;;;;;;;23.28;69.32;100858.11;1791744;78;21108;-67
2021/06/17 09:16:02;;;;;;;5.92;3.90;;;;;;;23.26;69.29;100860.39;1794236;78;21044;-66
2021/06/17 09:18:32;;;;;;;5.75;3.77;;;;;;;23.26;69.23;100865.94;1788523;78;20897;-68
2021/06/17 09:21:03;;;;;;;;;;;;;;;23.27;69.20;100866.19;1786645;78;21109;-68
2021/06/17 09:23:32;;;;;;;;;;;;;;;23.28;69.26;100862.84;1789253;78;20156;-68
2021/06/17 09:26:03;;;;;;;6.75;3.45;;;;;;;23.28;69.28;100860.89;1782070;78;21191;-68
2021/06/17 09:28:47;;;;;;;7.45;3.80;;;;;;;23.29;69.32;100853.38;1790398;78;21554;-69
2021/06/17 09:31:17;;;;;;;7.28;3.65;;;;;;;23.30;69.34;100845.30;1790076;78;21024;-68
2021/06/17 09:33:44;;;;;;;7.33;3.87;;;;;;;23.30;69.32;100854.41;1786493;78;20988;-67
2021/06/17 09:36:11;;;;;;;6.80;3.80;;;;;;;23.30;69.27;100843.91;1788982;78;21537;-68
2021/06/17 09:38:52;;;;;;;7.45;3.37;;;;;;;23.30;69.20;100848.86;1792613;78;23343;-68
2021/06/17 09:41:29;;;;;;;;;;;;;;;23.30;69.11;100850.24;1753138;79;21043;-68
2021/06/17 09:43:56;;;;;;;5.85;3.83;;;;;;;23.28;69.04;100851.17;1710098;81;20208;-68
2021/06/17 09:46:22;;;;;;;7.50;3.65;;;;;;;23.27;68.99;100850.92;1730689;81;22268;-67
2021/06/17 09:48:49;;;;;;;6.00;3.37;;;;;;;23.25;68.94;100848.25;1759615;79;21036;-67
2021/06/17 09:51:44;;;;;;;5.08;3.45;;;;;;;23.26;68.82;100842.34;1756813;79;21514;-67
2021/06/17 09:54:17;;;;;;;4.92;3.22;;;;;;;23.27;68.78;100842.59;1795171;78;21628;-67
2021/06/17 09:56:52;;;;;;;5.35;3.17;;;;;;;23.29;68.80;100846.44;1797214;78;21016;-67
2021/06/17 09:59:47;;;;;;;5.53;3.77;;;;;;;23.31;68.82;100833.84;1781904;78;21081;-67
2021/06/17 10:02:34;;;;;;;6.10;4.00;;;;;;;23.33;68.84;100829.34;1798051;78;21915;-67
2021/06/17 10:05:14;;;;;;;6.03;3.35;;;;;;;23.34;68.82;100826.22;1798710;78;21216;-67
2021/06/17 10:07:41;;;;;;;6.37;3.58;;;;;;;23.35;68.74;100827.84;1762392;79;21155;-67
2021/06/17 10:10:09;;;;;;;5.72;3.20;;;;;;;23.37;68.66;100832.50;1730144;81;21534;-67
2021/06/17 10:12:36;;;;;;;6.10;3.45;;;;;;;23.39;68.56;100827.98;1728598;81;21069;-67
2021/06/17 10:15:04;;;;;;;5.78;3.70;;;;;;;23.40;68.46;100823.49;1761025;80;21008;-67
2021/06/17 10:17:30;;;;;;;4.35;3.27;;;;;;;23.40;68.36;100819.91;1761322;80;21119;-66
2021/06/17 10:19:56;;;;;;;4.47;3.00;;;;;;;23.43;68.26;100830.33;1727108;82;21045;-67
2021/06/17 10:22:32;;;;;;;4.62;2.72;;;;;;;23.44;68.22;100823.09;1723947;82;21102;-67
2021/06/17 10:24:56;;;;;;;5.53;3.15;;;;;;;23.46;68.21;100816.64;1724899;83;21526;-67
2021/06/17 10:27:37;;;;;;;5.00;3.12;;;;;;;23.49;68.24;100822.91;1780288;80;21071;-66
2021/06/17 10:30:06;;;;;;;4.00;2.92;;;;;;;23.50;68.23;100818.98;1779058;80;21431;-67
2021/06/17 10:32:40;;;;;;;4.33;2.90;;;;;;;23.52;68.22;100818.05;1783586;79;21060;-67
2021/06/17 10:35:08;;;;;;;5.35;3.50;;;;;;;23.53;68.15;100818.88;1772437;79;21044;-67
2021/06/17 10:37:49;;;;;;;5.28;3.10;;;;;;;23.54;68.07;100815.77;1772459;80;21135;-66
2021/06/17 10:40:19;;;;;;;5.15;3.35;;;;;;;23.55;67.99;100814.59;1783127;80;21084;-67
2021/06/17 10:42:46;;;;;;;4.55;3.15;;;;;;;23.55;67.92;100815.20;1782730;79;21620;-67
2021/06/17 10:45:35;;;;;;;4.90;3.42;;;;;;;23.55;67.83;100815.98;1778236;79;21060;-68
2021/06/17 10:48:07;;;;;;;4.50;3.37;;;;;;;23.56;67.78;100812.63;1774998;80;21076;-68
2021/06/17 10:50:46;;;;;;;5.15;3.25;;;;;;;23.59;67.71;100814.16;1779368;79;21083;-67
2021/06/17 10:53:31;;;;;;;4.08;2.40;;;;;;;23.61;67.71;100816.03;1769906;80;21095;-67
2021/06/17 10:56:16;;;;;;;4.10;2.70;;;;;;;23.61;67.70;100816.61;1772352;79;21015;-67
2021/06/17 10:58:50;;;;;;;5.25;2.90;;;;;;;23.63;67.77;100806.80;1780234;79;21115;-67
2021/06/17 11:01:33;;;;;;;3.75;2.72;;;;;;;23.65;67.78;100805.88;1777796;80;21424;-68
2021/06/17 11:04:34;;;;;;;6.12;3.40;;;;;;;23.68;67.76;100799.42;1774435;80;21126;-68
2021/06/17 11:07:05;;;;;;;6.83;3.12;;;;;;;23.71;67.71;100798.16;1781248;79;21463;-68
2021/06/17 11:09:48;;;;;;;3.52;2.60;;;;;;;23.74;67.64;100793.88;1799424;78;21498;-68
2021/06/17 11:12:27;;;;;;;4.97;3.00;;;;;;;23.75;67.55;100792.73;1797683;78;21090;-67
2021/06/17 11:14:56;;;;;;;3.75;2.85;;;;;;;23.77;67.46;100789.84;1801595;78;21044;-67
2021/06/17 11:17:35;;;;;;;4.12;3.12;;;;;;;23.78;67.37;100783.14;1799321;78;21067;-66
2021/06/17 11:20:11;;;;;;;;;;;;;;;23.81;67.30;100783.02;1802844;78;21142;-67
2021/06/17 11:22:50;;;;;;;3.45;2.60;;;;;;;23.83;67.25;100772.40;1799346;78;23342;-66
2021/06/17 11:25:21;;;;;;;4.72;2.83;;;;;;;23.84;67.29;100768.48;1797442;78;21535;-67
2021/06/17 11:28:00;;;;;;;3.83;3.00;;;;;;;23.85;67.33;100770.89;1799242;78;21090;-66
2021/06/17 11:30:46;;;;;;;4.70;2.98;;;;;;;23.88;67.35;100774.97;1793662;78;21349;-67